• Join FlightAware (Why Join?)
  • Login
  • US Flag 
08:56AM EDT


 

Airport Tracker/Info


-or-


 

Live Flight TrackerFlight Track Log ✈ SWA561 ✈ 29-Apr-2013 ✈ KOAK - KLAX

Flight Track Log - Related Links

Times and Time Zones

All times are in EDT time to prevent confusion due to time zone crossing. See the SWA561 flight status page for this flight to view local times or setup timezone preferences in your user account.

Time Position Orientation Groundspeed Altitude Reporting Facility
EDT Latitude Longitude Course Direction KTS MPH feet Rate Location/Type
08:46PM 37.7333 -122.2667 149° Southeast 174 200 1,900  Level Northern Cal TRACON
08:47PM 37.7547 -122.2928 316° Northwest 209 241 3,200 2,460 Climbing Oakland Center
08:48PM 37.7142 -122.3619 233° Southwest 265 305 6,100 3,240 Climbing Oakland Center
08:48PM 37.6833 -122.3833 209° Southwest 292 336 7,500 3,120 Climbing Northern Cal TRACON
08:50PM 37.5519 -122.4036 187° South 337 388 12,500 3,360 Climbing Oakland Center
08:51PM 37.4828 -122.3072 132° Southeast 373 429 16,800 3,180 Climbing Oakland Center
08:52PM 37.4089 -122.4191 149° Southeast  Level FlightAware Approximate
08:52PM 37.3969 -122.1906 133° Southeast 382 440 19,000  Level Oakland Center
08:53PM 37.3197 -122.0922 135° Southeast 394 453 21,800 2,880 Climbing Oakland Center
08:54PM 37.2414 -121.9897 134° Southeast 406 467 24,900 2,820 Climbing Oakland Center
08:55PM 37.1603 -121.8831 134° Southeast 421 484 27,600 2,400 Climbing Oakland Center
08:56PM 37.0753 -121.7736 134° Southeast 438 504 29,900 2,160 Climbing Oakland Center
08:57PM 36.9878 -121.6628 135° Southeast 447 514 32,000 2,220 Climbing Oakland Center
08:58PM 36.9000 -121.5497 134° Southeast 452 520 34,500 2,340 Climbing Oakland Center
08:59PM 36.8081 -121.4283 133° Southeast 451 519 36,800 1,980 Climbing Oakland Center
09:00PM 36.7217 -121.3194 135° Southeast 445 512 38,600 1,320 Climbing Oakland Center
09:01PM 36.6347 -121.2092 134° Southeast 447 514 39,600 1,140 Climbing Oakland Center
09:02PM 36.5483 -121.0961 134° Southeast 450 518 41,000 660 Climbing Oakland Center
09:03PM 36.4614 -120.9881 135° Southeast 443 510 41,000  Level Oakland Center
09:04PM 36.3758 -120.8803 135° Southeast 439 505 41,000  Level Oakland Center
09:05PM 36.2900 -120.7714 134° Southeast 439 505 41,000  Level Oakland Center
09:06PM 36.2036 -120.6667 136° Southeast 436 502 41,000  Level Oakland Center
09:07PM 36.1014 -120.5383 135° Southeast 435 501 41,000  Level Oakland Center
09:08PM 36.0164 -120.4303 134° Southeast 439 505 41,000  Level Oakland Center
09:09PM 35.9308 -120.3253 135° Southeast 431 496 41,000  Level Oakland Center
09:10PM 35.8447 -120.2189 135° Southeast 436 502 41,000  Level Oakland Center
09:11PM 35.7575 -120.1125 135° Southeast 437 503 41,000  Level Oakland Center
09:12PM 35.6697 -120.0050 135° Southeast 441 507 41,000  Level Oakland Center
09:13PM 35.5719 -119.9125 142° Southeast 440 506 41,000  Level Oakland Center
09:14PM 35.4692 -119.8236 145° Southeast 446 513 41,000  Level Oakland Center
09:15PM 35.3672 -119.7369 145° Southeast 447 514 41,000 -420 Level Los Angeles Center
09:16PM 35.2661 -119.6500 145° Southeast 444 511 40,200 -1,020 Descending Los Angeles Center
09:17PM 35.1658 -119.5647 145° Southeast 439 505 39,000 -1,080 Descending Los Angeles Center
09:19PM 35.0664 -119.4783 145° Southeast 439 505 38,000 -1,740 Descending Los Angeles Center
09:20PM 34.9664 -119.3936 145° Southeast 437 503 35,500 -2,940 Descending Los Angeles Center
09:21PM 34.8642 -119.3083 146° Southeast 442 509 32,000 -3,780 Descending Los Angeles Center
09:22PM 34.7378 -119.2039 146° Southeast 454 522 27,800 -3,600 Descending Los Angeles Center
09:23PM 34.6322 -119.1100 144° Southeast 457 526 24,700 -3,000 Descending Los Angeles Center
09:24PM 34.5289 -119.0267 146° Southeast 445 512 21,700 -2,880 Descending Los Angeles Center
09:25PM 34.4317 -118.9461 146° Southeast 422 486 18,800 -2,880 Descending Los Angeles Center
09:26PM 34.3358 -118.8744 148° Southeast 399 459 15,900 -2,760 Descending Los Angeles Center
09:27PM 34.2317 -118.8356 163° South 389 448 13,200 -2,160 Descending Los Angeles Center
09:28PM 34.1331 -118.7997 163° South 368 423 11,500 -1,320 Descending Los Angeles Center
09:29PM 34.0439 -118.7511 156° South 317 365 10,500 -780 Descending Los Angeles Center
09:30PM 34.0281 -118.6469 100° East 290 334 10,000 -900 Descending Los Angeles Center
09:31PM 34.0183 -118.5500 97° East 292 336 8,700 -1,380 Descending Los Angeles Center
09:32PM 34.0106 -118.4561 96° East 282 325 7,200 -1,260 Descending Los Angeles Center
09:33PM 34.0219 -118.3667 81° East 273 314 6,100 -1,500 Descending Los Angeles Center
09:34PM 34.0294 -118.2886 83° East 244 281 4,100 -1,620 Descending Los Angeles Center
09:35PM 33.9867 -118.2750 165° South 200 230 2,800 -1,200 Descending Los Angeles Center
09:36PM 33.9614 -118.3175 234° Southwest 174 200 1,700 -1,020 Descending Los Angeles Center
09:37PM 33.9572 -118.3653 264° West 156 180 800 -840 Descending Los Angeles Center
09:38PM 33.9514 -118.4164 262° West 136 157 100 -720 Descending Los Angeles Center
09:40PM 33.9425 -118.4081 228° Southwest  Level Estimated
09:47PM 33.9425 -118.4081 228° Southwest  Level Estimated